sensor_id;sensor_type;location;lat;lon;timestamp;pressure;altitude;pressure_sealevel;temperature;humidity
46392;BME280;32098;49.448;7.904;2023-01-29T00:01:53;99378.81;;;-2.42;63.57
46392;BME280;32098;49.448;7.904;2023-01-29T00:04:21;99380.97;;;-2.36;63.57
46392;BME280;32098;49.448;7.904;2023-01-29T00:06:47;99379.28;;;-2.14;64.26
46392;BME280;32098;49.448;7.904;2023-01-29T00:09:14;99373.34;;;-2.16;63.82
46392;BME280;32098;49.448;7.904;2023-01-29T00:11:40;99363.59;;;-2.25;63.75
46392;BME280;32098;49.448;7.904;2023-01-29T00:14:07;99354.78;;;-2.24;64.18
46392;BME280;32098;49.448;7.904;2023-01-29T00:16:33;99377.28;;;-2.33;64.15
46392;BME280;32098;49.448;7.904;2023-01-29T00:19:01;99373.13;;;-2.36;64.45
46392;BME280;32098;49.448;7.904;2023-01-29T00:21:28;99372.91;;;-2.32;64.35
46392;BME280;32098;49.448;7.904;2023-01-29T00:23:57;99366.59;;;-2.30;63.90
46392;BME280;32098;49.448;7.904;2023-01-29T00:26:24;99358.59;;;-2.28;64.17
46392;BME280;32098;49.448;7.904;2023-01-29T00:28:51;99359.06;;;-2.23;64.04
46392;BME280;32098;49.448;7.904;2023-01-29T00:31:23;99356.44;;;-2.12;64.72
46392;BME280;32098;49.448;7.904;2023-01-29T00:33:50;99356.47;;;-2.23;64.27
46392;BME280;32098;49.448;7.904;2023-01-29T00:36:19;99347.31;;;-2.18;65.15
46392;BME280;32098;49.448;7.904;2023-01-29T00:38:46;99301.00;;;-2.60;65.48
46392;BME280;32098;49.448;7.904;2023-01-29T00:41:21;99356.94;;;-2.29;65.74
46392;BME280;32098;49.448;7.904;2023-01-29T00:44:07;99367.28;;;-2.28;64.17
46392;BME280;32098;49.448;7.904;2023-01-29T00:46:52;99365.38;;;-2.26;64.05
46392;BME280;32098;49.448;7.904;2023-01-29T00:49:19;99359.31;;;-2.60;65.10
46392;BME280;32098;49.448;7.904;2023-01-29T00:51:45;99385.25;;;-2.46;64.86
46392;BME280;32098;49.448;7.904;2023-01-29T00:54:35;99374.31;;;-2.51;64.94
46392;BME280;32098;49.448;7.904;2023-01-29T00:57:02;99374.31;;;-2.51;65.73
46392;BME280;32098;49.448;7.904;2023-01-29T00:59:30;99249.78;;;-3.40;65.53
46392;BME280;32098;49.448;7.904;2023-01-29T01:01:57;99381.91;;;-2.59;66.20
46392;BME280;32098;49.448;7.904;2023-01-29T01:04:42;99385.56;;;-2.72;65.32
46392;BME280;32098;49.448;7.904;2023-01-29T01:07:08;99389.97;;;-2.84;65.96
46392;BME280;32098;49.448;7.904;2023-01-29T01:09:35;99386.16;;;-2.91;66.34
46392;BME280;32098;49.448;7.904;2023-01-29T01:12:31;99390.91;;;-2.85;66.78
46392;BME280;32098;49.448;7.904;2023-01-29T01:14:58;99379.50;;;-2.84;66.73
46392;BME280;32098;49.448;7.904;2023-01-29T01:17:24;99386.41;;;-2.83;67.27
46392;BME280;32098;49.448;7.904;2023-01-29T01:19:51;99392.34;;;-2.70;66.45
46392;BME280;32098;49.448;7.904;2023-01-29T01:22:18;99388.09;;;-2.71;66.17
46392;BME280;32098;49.448;7.904;2023-01-29T01:24:45;99392.47;;;-2.71;66.77
46392;BME280;32098;49.448;7.904;2023-01-29T01:27:12;99371.31;;;-2.90;66.99
46392;BME280;32098;49.448;7.904;2023-01-29T01:29:38;99387.03;;;-2.68;66.24
46392;BME280;32098;49.448;7.904;2023-01-29T01:32:06;99379.91;;;-2.55;66.51
46392;BME280;32098;49.448;7.904;2023-01-29T01:34:33;99384.75;;;-2.62;66.02
46392;BME280;32098;49.448;7.904;2023-01-29T01:36:59;99391.75;;;-2.62;65.23
46392;BME280;32098;49.448;7.904;2023-01-29T01:39:26;99387.59;;;-2.87;65.80
46392;BME280;32098;49.448;7.904;2023-01-29T01:41:53;99383.06;;;-2.85;66.34
46392;BME280;32098;49.448;7.904;2023-01-29T01:44:56;99386.88;;;-3.00;66.09
46392;BME280;32098;49.448;7.904;2023-01-29T01:47:29;99345.50;;;-2.95;66.83
46392;BME280;32098;49.448;7.904;2023-01-29T01:49:59;99373.09;;;-2.80;65.45
46392;BME280;32098;49.448;7.904;2023-01-29T01:52:29;99367.53;;;-2.75;65.86
46392;BME280;32098;49.448;7.904;2023-01-29T01:54:58;99376.53;;;-2.79;66.98
46392;BME280;32098;49.448;7.904;2023-01-29T01:57:27;99372.28;;;-2.80;65.93
46392;BME280;32098;49.448;7.904;2023-01-29T02:00:08;99349.81;;;-2.83;65.81
46392;BME280;32098;49.448;7.904;2023-01-29T02:02:40;99353.63;;;-2.76;66.40
46392;BME280;32098;49.448;7.904;2023-01-29T02:05:29;99370.63;;;-2.59;65.74
46392;BME280;32098;49.448;7.904;2023-01-29T02:08:22;99371.09;;;-2.65;65.75
46392;BME280;32098;49.448;7.904;2023-01-29T02:11:09;99366.09;;;-2.68;65.85
46392;BME280;32098;49.448;7.904;2023-01-29T02:13:36;99357.56;;;-2.70;65.28
46392;BME280;32098;49.448;7.904;2023-01-29T02:16:03;99350.03;;;-2.75;65.49
46392;BME280;32098;49.448;7.904;2023-01-29T02:18:32;99354.81;;;-2.69;65.59
46392;BME280;32098;49.448;7.904;2023-01-29T02:24:47;99349.59;;;-2.58;65.80
46392;BME280;32098;49.448;7.904;2023-01-29T02:27:26;99301.94;;;-2.83;65.72
46392;BME280;32098;49.448;7.904;2023-01-29T02:30:17;99347.34;;;-2.40;65.60
46392;BME280;32098;49.448;7.904;2023-01-29T02:33:00;99335.28;;;-2.31;64.86
46392;BME280;32098;49.448;7.904;2023-01-29T02:35:36;99336.97;;;-2.42;64.11
46392;BME280;32098;49.448;7.904;2023-01-29T02:38:39;99338.88;;;-2.44;64.00
46392;BME280;32098;49.448;7.904;2023-01-29T02:41:17;99327.94;;;-2.38;64.77
46392;BME280;32098;49.448;7.904;2023-01-29T02:43:50;99321.16;;;-2.29;64.98
46392;BME280;32098;49.448;7.904;2023-01-29T02:46:38;99318.16;;;-2.24;64.99
46392;BME280;32098;49.448;7.904;2023-01-29T02:49:11;99315.31;;;-2.21;64.85
46392;BME280;32098;49.448;7.904;2023-01-29T02:51:48;99320.53;;;-2.21;63.68
46392;BME280;32098;49.448;7.904;2023-01-29T02:54:23;99322.91;;;-2.18;63.68
46392;BME280;32098;49.448;7.904;2023-01-29T02:57:05;99303.56;;;-2.38;63.03
46392;BME280;32098;49.448;7.904;2023-01-29T02:59:38;99313.53;;;-2.32;63.71
46392;BME280;32098;49.448;7.904;2023-01-29T03:02:09;99308.53;;;-2.24;64.95
46392;BME280;32098;49.448;7.904;2023-01-29T03:04:43;99274.94;;;-2.51;64.08
46392;BME280;32098;49.448;7.904;2023-01-29T03:07:17;99311.75;;;-2.31;64.80
46392;BME280;32098;49.448;7.904;2023-01-29T03:10:14;99308.44;;;-2.45;64.07
46392;BME280;32098;49.448;7.904;2023-01-29T03:12:45;99324.25;;;-2.46;63.38
46392;BME280;32098;49.448;7.904;2023-01-29T03:15:23;99330.09;;;-2.54;64.11
46392;BME280;32098;49.448;7.904;2023-01-29T03:18:13;99332.59;;;-2.74;65.96
46392;BME280;32098;49.448;7.904;2023-01-29T03:20:45;99335.69;;;-2.80;65.76
46392;BME280;32098;49.448;7.904;2023-01-29T03:23:33;99338.28;;;-2.69;65.77
46392;BME280;32098;49.448;7.904;2023-01-29T03:26:21;99343.63;;;-2.82;66.22
46392;BME280;32098;49.448;7.904;2023-01-29T03:29:07;99350.78;;;-2.73;66.66
46392;BME280;32098;49.448;7.904;2023-01-29T03:31:55;99344.69;;;-2.84;66.17
46392;BME280;32098;49.448;7.904;2023-01-29T03:34:45;99353.63;;;-2.76;66.35
46392;BME280;32098;49.448;7.904;2023-01-29T03:37:29;99360.25;;;-2.94;66.62
46392;BME280;32098;49.448;7.904;2023-01-29T03:39:58;99353.47;;;-3.08;66.38
46392;BME280;32098;49.448;7.904;2023-01-29T03:45:15;99357.13;;;-3.21;66.38
46392;BME280;32098;49.448;7.904;2023-01-29T03:47:51;99352.16;;;-3.02;66.40
46392;BME280;32098;49.448;7.904;2023-01-29T03:50:33;99359.53;;;-2.85;66.46
46392;BME280;32098;49.448;7.904;2023-01-29T03:58:59;99357.88;;;-2.75;67.46
46392;BME280;32098;49.448;7.904;2023-01-29T04:01:53;99367.50;;;-2.86;67.54
46392;BME280;32098;49.448;7.904;2023-01-29T04:04:36;99387.56;;;-2.98;68.72
46392;BME280;32098;49.448;7.904;2023-01-29T04:07:19;99380.91;;;-3.02;67.97
46392;BME280;32098;49.448;7.904;2023-01-29T04:10:02;99378.84;;;-3.21;67.45
46392;BME280;32098;49.448;7.904;2023-01-29T04:12:44;99377.78;;;-3.18;67.46
46392;BME280;32098;49.448;7.904;2023-01-29T04:15:14;99366.28;;;-3.05;66.82
46392;BME280;32098;49.448;7.904;2023-01-29T04:17:49;99361.34;;;-2.85;66.20
46392;BME280;32098;49.448;7.904;2023-01-29T04:20:24;99343.28;;;-2.88;65.79
46392;BME280;32098;49.448;7.904;2023-01-29T04:22:51;99359.34;;;-2.71;66.11
46392;BME280;32098;49.448;7.904;2023-01-29T04:25:23;99320.94;;;-2.81;66.04
46392;BME280;32098;49.448;7.904;2023-01-29T04:28:05;99349.59;;;-2.58;65.54
46392;BME280;32098;49.448;7.904;2023-01-29T04:33:28;99348.88;;;-2.49;64.86
46392;BME280;32098;49.448;7.904;2023-01-29T04:36:35;99336.03;;;-2.41;64.79
46392;BME280;32098;49.448;7.904;2023-01-29T04:39:27;99280.44;;;-2.76;64.45
46392;BME280;32098;49.448;7.904;2023-01-29T04:43:02;99347.19;;;-2.39;64.56
46392;BME280;32098;49.448;7.904;2023-01-29T04:50:33;99300.38;;;-2.64;64.72
46392;BME280;32098;49.448;7.904;2023-01-29T04:53:20;99270.34;;;-3.03;64.78
46392;BME280;32098;49.448;7.904;2023-01-29T04:55:53;99311.91;;;-2.77;65.35
46392;BME280;32098;49.448;7.904;2023-01-29T04:58:32;99320.84;;;-2.58;66.41
46392;BME280;32098;49.448;7.904;2023-01-29T05:01:04;99313.47;;;-2.53;65.32
46392;BME280;32098;49.448;7.904;2023-01-29T05:03:32;99317.97;;;-2.44;64.52
46392;BME280;32098;49.448;7.904;2023-01-29T05:06:00;99321.66;;;-2.46;64.43
46392;BME280;32098;49.448;7.904;2023-01-29T05:08:29;99329.84;;;-2.51;64.91
46392;BME280;32098;49.448;7.904;2023-01-29T05:10:58;99326.28;;;-2.50;64.44
46392;BME280;32098;49.448;7.904;2023-01-29T05:13:27;99329.84;;;-2.51;65.81
46392;BME280;32098;49.448;7.904;2023-01-29T05:16:18;99337.00;;;-2.53;64.88
46392;BME280;32098;49.448;7.904;2023-01-29T05:18:47;99340.56;;;-2.54;65.92
46392;BME280;32098;49.448;7.904;2023-01-29T05:21:14;99340.19;;;-2.49;65.74
46392;BME280;32098;49.448;7.904;2023-01-29T05:23:40;99343.28;;;-2.44;66.72
46392;BME280;32098;49.448;7.904;2023-01-29T05:26:19;99352.09;;;-2.45;66.92
46392;BME280;32098;49.448;7.904;2023-01-29T05:29:05;99346.25;;;-2.49;66.33
46392;BME280;32098;49.448;7.904;2023-01-29T05:31:31;99350.31;;;-2.56;66.14
46392;BME280;32098;49.448;7.904;2023-01-29T05:33:58;99345.31;;;-2.59;65.76
46392;BME280;32098;49.448;7.904;2023-01-29T05:36:24;99343.41;;;-2.57;65.99
46392;BME280;32098;49.448;7.904;2023-01-29T05:38:52;99348.63;;;-2.57;66.02
46392;BME280;32098;49.448;7.904;2023-01-29T05:41:18;99355.16;;;-2.62;65.99
46392;BME280;32098;49.448;7.904;2023-01-29T05:43:46;99361.00;;;-2.59;65.46
46392;BME280;32098;49.448;7.904;2023-01-29T05:46:12;99354.34;;;-2.52;66.35
46392;BME280;32098;49.448;7.904;2023-01-29T05:48:39;99350.06;;;-2.64;65.30
46392;BME280;32098;49.448;7.904;2023-01-29T05:51:05;99337.53;;;-3.05;65.75
46392;BME280;32098;49.448;7.904;2023-01-29T05:53:32;99348.13;;;-3.06;65.54
46392;BME280;32098;49.448;7.904;2023-01-29T05:56:03;99335.88;;;-3.17;66.61
46392;BME280;32098;49.448;7.904;2023-01-29T05:58:31;99335.03;;;-3.17;66.12
46392;BME280;32098;49.448;7.904;2023-01-29T06:01:07;99331.97;;;-3.11;65.76
46392;BME280;32098;49.448;7.904;2023-01-29T06:03:33;99334.56;;;-3.11;65.47
46392;BME280;32098;49.448;7.904;2023-01-29T06:06:00;99334.56;;;-3.11;66.44
46392;BME280;32098;49.448;7.904;2023-01-29T06:08:27;99299.66;;;-3.21;66.63
46392;BME280;32098;49.448;7.904;2023-01-29T06:10:53;99335.53;;;-2.90;66.11
46392;BME280;32098;49.448;7.904;2023-01-29T06:13:20;99342.94;;;-2.73;65.92
46392;BME280;32098;49.448;7.904;2023-01-29T06:15:49;99344.69;;;-2.84;66.78
46392;BME280;32098;49.448;7.904;2023-01-29T06:18:15;99348.25;;;-3.08;66.89
46392;BME280;32098;49.448;7.904;2023-01-29T06:20:41;99358.09;;;-3.11;65.56
46392;BME280;32098;49.448;7.904;2023-01-29T06:23:08;99346.97;;;-3.37;65.37
46392;BME280;32098;49.448;7.904;2023-01-29T06:25:34;99349.00;;;-3.29;65.74
46392;BME280;32098;49.448;7.904;2023-01-29T06:28:01;99350.13;;;-3.10;66.60
46392;BME280;32098;49.448;7.904;2023-01-29T06:30:27;99342.19;;;-3.08;67.34
46392;BME280;32098;49.448;7.904;2023-01-29T06:32:55;99309.88;;;-3.18;66.66
46392;BME280;32098;49.448;7.904;2023-01-29T06:35:24;99330.78;;;-2.96;66.47
46392;BME280;32098;49.448;7.904;2023-01-29T06:37:50;99332.91;;;-2.90;65.45
46392;BME280;32098;49.448;7.904;2023-01-29T06:40:17;99327.69;;;-2.90;65.03
46392;BME280;32098;49.448;7.904;2023-01-29T06:42:44;99329.72;;;-2.82;65.76
46392;BME280;32098;49.448;7.904;2023-01-29T06:45:11;99335.69;;;-2.80;65.87
46392;BME280;32098;49.448;7.904;2023-01-29T06:47:38;99334.72;;;-2.90;64.43
46392;BME280;32098;49.448;7.904;2023-01-29T06:50:04;99330.69;;;-2.83;64.92
46392;BME280;32098;49.448;7.904;2023-01-29T06:52:31;99332.25;;;-2.81;65.17
46392;BME280;32098;49.448;7.904;2023-01-29T06:54:57;99337.94;;;-2.76;65.26
46392;BME280;32098;49.448;7.904;2023-01-29T06:57:27;99342.69;;;-2.70;65.30
46392;BME280;32098;49.448;7.904;2023-01-29T06:59:53;99332.25;;;-2.81;65.18
46392;BME280;32098;49.448;7.904;2023-01-29T07:02:20;99330.81;;;-2.74;65.01
46392;BME280;32098;49.448;7.904;2023-01-29T07:04:46;99344.84;;;-2.64;65.56
46392;BME280;32098;49.448;7.904;2023-01-29T07:07:13;99332.00;;;-2.67;64.92
46392;BME280;32098;49.448;7.904;2023-01-29T07:09:40;99340.81;;;-2.68;64.92
46392;BME280;32098;49.448;7.904;2023-01-29T07:12:09;99336.88;;;-2.95;64.52
46392;BME280;32098;49.448;7.904;2023-01-29T07:14:35;99342.91;;;-2.84;65.19
46392;BME280;32098;49.448;7.904;2023-01-29T07:17:02;99350.19;;;-2.76;65.66
46392;BME280;32098;49.448;7.904;2023-01-29T07:19:29;99346.25;;;-2.71;65.07
46392;BME280;32098;49.448;7.904;2023-01-29T07:21:55;99341.03;;;-2.71;64.87
46392;BME280;32098;49.448;7.904;2023-01-29T07:24:22;99357.06;;;-2.64;65.47
46392;BME280;32098;49.448;7.904;2023-01-29T07:26:48;99348.50;;;-2.66;65.42
46392;BME280;32098;49.448;7.904;2023-01-29T07:29:15;99319.75;;;-2.88;64.55
46392;BME280;32098;49.448;7.904;2023-01-29T07:31:41;99348.50;;;-2.66;65.45
46392;BME280;32098;49.448;7.904;2023-01-29T07:34:08;99350.66;;;-2.60;66.60
46392;BME280;32098;49.448;7.904;2023-01-29T07:36:34;99342.69;;;-2.59;66.07
46392;BME280;32098;49.448;7.904;2023-01-29T07:39:04;99340.69;;;-2.55;65.38
46392;BME280;32098;49.448;7.904;2023-01-29T07:41:30;99350.31;;;-2.56;65.18
46392;BME280;32098;49.448;7.904;2023-01-29T07:43:58;99361.13;;;-2.49;65.95
46392;BME280;32098;49.448;7.904;2023-01-29T07:46:24;99362.31;;;-2.53;66.39
46392;BME280;32098;49.448;7.904;2023-01-29T07:48:51;99355.03;;;-2.50;66.46
46392;BME280;32098;49.448;7.904;2023-01-29T07:51:17;99354.47;;;-2.53;66.31
46392;BME280;32098;49.448;7.904;2023-01-29T07:53:44;99365.28;;;-2.47;65.67
46392;BME280;32098;49.448;7.904;2023-01-29T07:56:11;99369.19;;;-2.41;65.60
46392;BME280;32098;49.448;7.904;2023-01-29T07:58:37;99358.84;;;-2.54;65.71
46392;BME280;32098;49.448;7.904;2023-01-29T08:01:05;99369.91;;;-2.39;66.00
46392;BME280;32098;49.448;7.904;2023-01-29T08:03:32;99356.94;;;-2.52;65.27
46392;BME280;32098;49.448;7.904;2023-01-29T08:05:59;99377.66;;;-2.38;65.17
46392;BME280;32098;49.448;7.904;2023-01-29T08:08:25;99378.13;;;-2.32;64.32
46392;BME280;32098;49.448;7.904;2023-01-29T08:10:52;99359.69;;;-2.42;64.64
46392;BME280;32098;49.448;7.904;2023-01-29T08:13:18;99370.16;;;-2.31;63.97
46392;BME280;32098;49.448;7.904;2023-01-29T08:15:45;99370.84;;;-2.29;64.39
46392;BME280;32098;49.448;7.904;2023-01-29T08:18:12;99382.84;;;-2.26;64.14
46392;BME280;32098;49.448;7.904;2023-01-29T08:20:39;99388.69;;;-2.23;64.96
46392;BME280;32098;49.448;7.904;2023-01-29T08:23:11;99374.06;;;-2.25;64.38
46392;BME280;32098;49.448;7.904;2023-01-29T08:25:38;99385.38;;;-2.25;64.20
46392;BME280;32098;49.448;7.904;2023-01-29T08:28:04;99390.81;;;-2.17;64.37
46392;BME280;32098;49.448;7.904;2023-01-29T08:30:32;99392.84;;;-2.20;64.00
46392;BME280;32098;49.448;7.904;2023-01-29T08:33:00;99389.75;;;-2.14;63.53
46392;BME280;32098;49.448;7.904;2023-01-29T08:35:28;99375.25;;;-2.29;63.44
46392;BME280;32098;49.448;7.904;2023-01-29T08:37:55;99369.69;;;-2.25;64.18
46392;BME280;32098;49.448;7.904;2023-01-29T08:40:24;99369.88;;;-2.17;64.01
46392;BME280;32098;49.448;7.904;2023-01-29T08:42:51;99384.41;;;-2.13;63.64
46392;BME280;32098;49.448;7.904;2023-01-29T08:45:18;99391.28;;;-2.12;64.12
46392;BME280;32098;49.448;7.904;2023-01-29T08:47:48;99401.50;;;-2.09;64.16
46392;BME280;32098;49.448;7.904;2023-01-29T08:50:15;99391.06;;;-2.09;63.95
46392;BME280;32098;49.448;7.904;2023-01-29T08:52:44;99396.97;;;-1.96;63.34
46392;BME280;32098;49.448;7.904;2023-01-29T08:55:11;99384.75;;;-2.06;63.60
46392;BME280;32098;49.448;7.904;2023-01-29T08:57:38;99380.22;;;-2.04;62.97
46392;BME280;32098;49.448;7.904;2023-01-29T09:00:06;99375.81;;;-1.93;63.10
46392;BME280;32098;49.448;7.904;2023-01-29T09:02:33;99363.97;;;-1.87;63.58
46392;BME280;32098;49.448;7.904;2023-01-29T09:05:00;99345.41;;;-1.84;62.60
46392;BME280;32098;49.448;7.904;2023-01-29T09:07:27;99315.53;;;-2.13;63.05
46392;BME280;32098;49.448;7.904;2023-01-29T09:09:54;99326.38;;;-1.86;63.33
46392;BME280;32098;49.448;7.904;2023-01-29T09:12:20;99320.78;;;-1.50;62.79
46392;BME280;32098;49.448;7.904;2023-01-29T09:14:47;99317.72;;;-1.14;61.60
46392;BME280;32098;49.448;7.904;2023-01-29T09:17:13;99315.72;;;-1.00;60.61
46392;BME280;32098;49.448;7.904;2023-01-29T09:19:40;99324.47;;;-0.60;60.52
46392;BME280;32098;49.448;7.904;2023-01-29T09:22:07;99328.84;;;-0.30;59.81
46392;BME280;32098;49.448;7.904;2023-01-29T09:24:36;99224.56;;;-0.87;58.47
46392;BME280;32098;49.448;7.904;2023-01-29T09:27:02;99339.31;;;0.09;58.06
46392;BME280;32098;49.448;7.904;2023-01-29T09:29:30;99335.06;;;0.28;56.97
46392;BME280;32098;49.448;7.904;2023-01-29T09:32:03;99332.28;;;0.39;56.51
46392;BME280;32098;49.448;7.904;2023-01-29T09:34:29;99343.09;;;0.55;56.70
46392;BME280;32098;49.448;7.904;2023-01-29T09:36:56;99339.47;;;0.56;56.61
46392;BME280;32098;49.448;7.904;2023-01-29T09:39:22;99306.41;;;0.44;57.25
46392;BME280;32098;49.448;7.904;2023-01-29T09:44:24;99349.72;;;0.78;55.63
46392;BME280;32098;49.448;7.904;2023-01-29T09:46:54;99353.31;;;0.77;56.25
46392;BME280;32098;49.448;7.904;2023-01-29T09:49:31;99345.25;;;0.78;56.27
46392;BME280;32098;49.448;7.904;2023-01-29T09:52:04;99331.44;;;0.29;56.13
46392;BME280;32098;49.448;7.904;2023-01-29T09:57:23;99359.38;;;0.30;57.85
46392;BME280;32098;49.448;7.904;2023-01-29T09:59:51;99381.59;;;0.06;57.74
46392;BME280;32098;49.448;7.904;2023-01-29T10:05:01;99377.56;;;-0.07;57.87
46392;BME280;32098;49.448;7.904;2023-01-29T10:07:46;99367.81;;;-0.26;58.72
46392;BME280;32098;49.448;7.904;2023-01-29T10:13:04;99382.69;;;-0.66;58.51
46392;BME280;32098;49.448;7.904;2023-01-29T10:16:10;99395.81;;;-0.66;59.22
46392;BME280;32098;49.448;7.904;2023-01-29T10:18:51;99392.47;;;-0.48;60.30
46392;BME280;32098;49.448;7.904;2023-01-29T10:24:29;99393.34;;;-0.68;59.63
46392;BME280;32098;49.448;7.904;2023-01-29T10:27:02;99391.44;;;-0.56;59.68
46392;BME280;32098;49.448;7.904;2023-01-29T10:29:30;99383.47;;;-0.55;59.82
46392;BME280;32098;49.448;7.904;2023-01-29T10:32:00;99380.41;;;-0.80;60.01
46392;BME280;32098;49.448;7.904;2023-01-29T10:34:40;99370.69;;;-0.89;59.91
46392;BME280;32098;49.448;7.904;2023-01-29T10:37:16;99352.28;;;-0.99;59.81
46392;BME280;32098;49.448;7.904;2023-01-29T10:39:44;99365.09;;;-0.85;60.99
46392;BME280;32098;49.448;7.904;2023-01-29T10:50:46;99358.56;;;-0.30;61.62
46392;BME280;32098;49.448;7.904;2023-01-29T10:53:38;99310.09;;;-0.26;61.14
46392;BME280;32098;49.448;7.904;2023-01-29T10:58:54;99350.22;;;0.05;58.69
46392;BME280;32098;49.448;7.904;2023-01-29T11:01:22;99339.84;;;0.03;57.60
46392;BME280;32098;49.448;7.904;2023-01-29T11:04:00;99334.06;;;0.29;57.48
46392;BME280;32098;49.448;7.904;2023-01-29T11:06:30;99311.13;;;0.50;57.87
46392;BME280;32098;49.448;7.904;2023-01-29T11:09:27;99313.19;;;0.75;56.99
46392;BME280;32098;49.448;7.904;2023-01-29T11:12:08;99301.25;;;0.90;56.68
46392;BME280;32098;49.448;7.904;2023-01-29T11:14:46;99295.41;;;1.06;56.14
46392;BME280;32098;49.448;7.904;2023-01-29T11:17:19;99292.06;;;1.13;56.53
46392;BME280;32098;49.448;7.904;2023-01-29T11:19:48;99289.84;;;1.18;57.04
46392;BME280;32098;49.448;7.904;2023-01-29T11:22:18;99281.94;;;1.18;55.99
46392;BME280;32098;49.448;7.904;2023-01-29T11:24:46;99278.38;;;1.37;55.66
46392;BME280;32098;49.448;7.904;2023-01-29T11:27:33;99272.00;;;1.39;55.78
46392;BME280;32098;49.448;7.904;2023-01-29T11:30:00;99267.56;;;1.40;55.53
46392;BME280;32098;49.448;7.904;2023-01-29T11:32:31;99252.63;;;1.40;55.64
46392;BME280;32098;49.448;7.904;2023-01-29T11:35:01;99216.94;;;1.28;55.51
46392;BME280;32098;49.448;7.904;2023-01-29T11:37:40;99255.72;;;1.53;54.79
46392;BME280;32098;49.448;7.904;2023-01-29T11:42:49;99240.41;;;1.67;54.63
46392;BME280;32098;49.448;7.904;2023-01-29T11:45:25;99236.19;;;1.74;54.84
46392;BME280;32098;49.448;7.904;2023-01-29T11:47:53;99225.94;;;1.53;53.21
46392;BME280;32098;49.448;7.904;2023-01-29T11:50:26;99221.13;;;1.66;54.55
46392;BME280;32098;49.448;7.904;2023-01-29T11:52:53;99212.56;;;1.64;54.21
46392;BME280;32098;49.448;7.904;2023-01-29T11:55:27;99211.56;;;1.47;54.22
46392;BME280;32098;49.448;7.904;2023-01-29T11:58:17;99196.34;;;1.41;54.91
46392;BME280;32098;49.448;7.904;2023-01-29T12:00:48;99199.75;;;1.51;54.95
46392;BME280;32098;49.448;7.904;2023-01-29T12:03:39;99193.59;;;1.43;54.89
46392;BME280;32098;49.448;7.904;2023-01-29T12:06:22;99197.19;;;1.42;54.65
46392;BME280;32098;49.448;7.904;2023-01-29T12:08:57;99202.75;;;1.39;54.67
46392;BME280;32098;49.448;7.904;2023-01-29T12:11:29;99177.59;;;1.27;55.58
46392;BME280;32098;49.448;7.904;2023-01-29T12:14:02;99210.78;;;1.37;54.89
46392;BME280;32098;49.448;7.904;2023-01-29T12:19:30;99195.84;;;1.38;56.03
46392;BME280;32098;49.448;7.904;2023-01-29T12:22:05;99176.72;;;1.36;55.83
46392;BME280;32098;49.448;7.904;2023-01-29T12:24:55;99179.44;;;1.44;56.76
46392;BME280;32098;49.448;7.904;2023-01-29T12:27:27;99183.75;;;1.45;55.61
46392;BME280;32098;49.448;7.904;2023-01-29T12:30:02;99175.19;;;1.33;55.48
46392;BME280;32098;49.448;7.904;2023-01-29T12:32:48;99172.91;;;1.30;55.98
46392;BME280;32098;49.448;7.904;2023-01-29T12:35:21;99172.56;;;1.33;55.73
46392;BME280;32098;49.448;7.904;2023-01-29T12:37:57;99168.97;;;1.34;55.72
46392;BME280;32098;49.448;7.904;2023-01-29T12:40:30;99143.28;;;1.28;55.92
46392;BME280;32098;49.448;7.904;2023-01-29T12:43:04;99172.09;;;1.47;56.12
46392;BME280;32098;49.448;7.904;2023-01-29T12:45:36;99164.19;;;1.47;56.64
46392;BME280;32098;49.448;7.904;2023-01-29T12:48:09;99168.34;;;1.50;57.34
46392;BME280;32098;49.448;7.904;2023-01-29T12:50:37;99156.97;;;1.49;56.29
46392;BME280;32098;49.448;7.904;2023-01-29T12:53:40;99143.13;;;1.47;56.62
46392;BME280;32098;49.448;7.904;2023-01-29T12:56:18;99101.69;;;1.32;57.34
46392;BME280;32098;49.448;7.904;2023-01-29T12:58:50;99105.16;;;1.32;57.40
46392;BME280;32098;49.448;7.904;2023-01-29T13:01:33;99124.03;;;1.45;57.42
46392;BME280;32098;49.448;7.904;2023-01-29T13:04:05;99126.50;;;1.47;58.05
46392;BME280;32098;49.448;7.904;2023-01-29T13:06:43;99130.06;;;1.56;57.90
46392;BME280;32098;49.448;7.904;2023-01-29T13:09:19;99120.66;;;1.53;57.75
46392;BME280;32098;49.448;7.904;2023-01-29T13:12:26;99126.81;;;1.44;56.61
46392;BME280;32098;49.448;7.904;2023-01-29T13:14:56;99124.41;;;1.50;57.87
46392;BME280;32098;49.448;7.904;2023-01-29T13:20:07;99124.94;;;1.54;57.75
46392;BME280;32098;49.448;7.904;2023-01-29T13:22:37;99112.53;;;1.64;57.74
46392;BME280;32098;49.448;7.904;2023-01-29T13:25:05;99127.47;;;1.64;57.37
46392;BME280;32098;49.448;7.904;2023-01-29T13:27:37;99118.53;;;1.57;57.85
46392;BME280;32098;49.448;7.904;2023-01-29T13:30:05;99128.09;;;1.58;56.76
46392;BME280;32098;49.448;7.904;2023-01-29T13:32:34;99117.50;;;1.49;56.51
46392;BME280;32098;49.448;7.904;2023-01-29T13:35:06;99112.31;;;1.40;56.51
46392;BME280;32098;49.448;7.904;2023-01-29T13:37:41;99121.03;;;1.40;57.10
46392;BME280;32098;49.448;7.904;2023-01-29T13:40:20;99117.47;;;1.32;57.38
46392;BME280;32098;49.448;7.904;2023-01-29T13:42:49;99101.75;;;1.22;57.85
46392;BME280;32098;49.448;7.904;2023-01-29T13:45:24;99104.69;;;1.19;58.38
46392;BME280;32098;49.448;7.904;2023-01-29T13:48:07;99097.41;;;1.13;58.41
46392;BME280;32098;49.448;7.904;2023-01-29T13:50:35;99114.16;;;1.12;58.24
46392;BME280;32098;49.448;7.904;2023-01-29T13:53:05;99108.50;;;1.07;58.52
46392;BME280;32098;49.448;7.904;2023-01-29T13:55:38;99103.63;;;1.12;58.12
46392;BME280;32098;49.448;7.904;2023-01-29T13:58:07;99086.69;;;0.97;58.64
46392;BME280;32098;49.448;7.904;2023-01-29T14:05:40;99105.22;;;1.23;58.59
46392;BME280;32098;49.448;7.904;2023-01-29T14:10:36;99100.03;;;1.31;58.53
46392;BME280;32098;49.448;7.904;2023-01-29T14:15:34;99095.22;;;1.26;58.01
46392;BME280;32098;49.448;7.904;2023-01-29T14:18:22;99060.56;;;1.13;57.62
46392;BME280;32098;49.448;7.904;2023-01-29T14:20:54;99090.31;;;1.31;57.84
46392;BME280;32098;49.448;7.904;2023-01-29T14:23:38;99085.38;;;1.28;57.65
46392;BME280;32098;49.448;7.904;2023-01-29T14:29:02;99082.38;;;1.23;57.78
46392;BME280;32098;49.448;7.904;2023-01-29T14:31:39;99079.94;;;1.12;57.04
46392;BME280;32098;49.448;7.904;2023-01-29T14:34:14;99076.53;;;0.84;57.48
46392;BME280;32098;49.448;7.904;2023-01-29T14:36:43;99079.00;;;0.86;57.98
46392;BME280;32098;49.448;7.904;2023-01-29T14:39:26;99071.50;;;0.91;58.76